Time;durP1;ratioP1;P1;durP2;ratioP2;P2;SDS_P1;SDS_P2;PMS_P1;PMS_P2;Temp;Humidity;BMP_temperature;BMP_pressure;BME280_temperature;BME280_humidity;BME280_pressure;Samples;Min_cycle;Max_cycle;Signal;HPM_P1;HPM_P2
2022/10/27 00:00:55;;;;;;;8.02;2.85;;;16.50;99.90;;;;;;4985661;28;20070;-84
2022/10/27 00:03:22;;;;;;;8.63;2.90;;;16.50;99.90;;;;;;4987405;28;20049;-85
2022/10/27 00:05:49;;;;;;;8.93;2.78;;;16.50;99.90;;;;;;4981941;28;20050;-85
2022/10/27 00:08:17;;;;;;;10.35;2.92;;;16.50;99.90;;;;;;4965579;28;20058;-84
2022/10/27 00:10:44;;;;;;;9.55;2.92;;;16.50;99.90;;;;;;4983580;28;20049;-85
2022/10/27 00:13:13;;;;;;;8.57;2.83;;;16.50;99.90;;;;;;4967059;28;20049;-84
2022/10/27 00:15:40;;;;;;;9.50;3.00;;;16.50;99.90;;;;;;4986950;28;20045;-84
2022/10/27 00:18:09;;;;;;;10.05;2.78;;;16.50;99.90;;;;;;4981918;28;20050;-84
2022/10/27 00:20:36;;;;;;;8.00;2.80;;;16.50;99.90;;;;;;4982179;28;20101;-84
2022/10/27 00:23:03;;;;;;;7.80;2.55;;;16.50;99.90;;;;;;4999510;23;20054;-79
2022/10/27 00:25:29;;;;;;;12.70;2.90;;;16.50;99.90;;;;;;5013972;28;20061;-77
2022/10/27 00:27:56;;;;;;;8.90;2.60;;;16.50;99.90;;;;;;5020664;28;21671;-77
2022/10/27 00:30:25;;;;;;;5.80;2.55;;;16.50;99.90;;;;;;5020765;28;20045;-78
2022/10/27 00:32:53;;;;;;;11.30;3.15;;;16.50;99.90;;;;;;5024953;28;20041;-77
2022/10/27 00:35:20;;;;;;;7.13;2.65;;;16.50;99.90;;;;;;5018209;28;20041;-78
2022/10/27 00:37:47;;;;;;;12.13;2.90;;;16.50;99.90;;;;;;5018487;28;20053;-78
2022/10/27 00:40:13;;;;;;;9.45;2.78;;;16.40;99.90;;;;;;5020645;28;20045;-77
2022/10/27 00:42:40;;;;;;;12.38;2.88;;;16.40;99.90;;;;;;5020125;28;20049;-77
2022/10/27 00:45:08;;;;;;;7.55;2.63;;;16.40;99.90;;;;;;5021256;28;20056;-77
2022/10/27 00:47:37;;;;;;;11.50;3.25;;;16.40;99.90;;;;;;5016947;28;20064;-77
2022/10/27 00:50:06;;;;;;;15.90;2.70;;;16.40;99.90;;;;;;5026249;28;20038;-77
2022/10/27 00:52:35;;;;;;;7.88;3.05;;;16.40;99.90;;;;;;5018367;28;20048;-77
2022/10/27 00:55:04;;;;;;;10.13;3.05;;;16.40;99.90;;;;;;5016555;28;20116;-77
2022/10/27 00:57:32;;;;;;;9.52;2.55;;;16.30;99.90;;;;;;5024777;28;20046;-77
2022/10/27 01:00:00;;;;;;;7.97;2.50;;;16.30;99.90;;;;;;5018662;28;20045;-78
2022/10/27 01:02:27;;;;;;;9.02;2.80;;;16.30;99.90;;;;;;5017477;28;20045;-77
2022/10/27 01:04:59;;;;;;;6.25;2.63;;;16.30;99.90;;;;;;5016237;28;20041;-77
2022/10/27 01:07:26;;;;;;;7.07;2.80;;;16.30;99.90;;;;;;5023860;28;20050;-78
2022/10/27 01:09:53;;;;;;;7.88;2.75;;;16.30;99.90;;;;;;5019620;28;20049;-78
2022/10/27 01:12:20;;;;;;;13.65;2.90;;;16.30;99.90;;;;;;5024187;28;20489;-77
2022/10/27 01:14:47;;;;;;;7.47;2.72;;;16.30;99.90;;;;;;5017388;28;20156;-77
2022/10/27 01:17:24;;;;;;;7.05;2.55;;;16.30;99.90;;;;;;5021525;28;20038;-77
2022/10/27 01:20:21;;;;;;;6.63;2.80;;;16.30;99.90;;;;;;5020831;28;20054;-77
2022/10/27 01:22:52;;;;;;;10.98;2.65;;;16.20;99.90;;;;;;5008748;28;20049;-77
2022/10/27 01:25:37;;;;;;;8.82;2.60;;;16.20;99.90;;;;;;5019719;28;20045;-77
2022/10/27 01:28:18;;;;;;;7.97;2.50;;;16.20;99.90;;;;;;5021266;28;20405;-77
2022/10/27 01:30:58;;;;;;;10.50;2.80;;;16.20;99.90;;;;;;5019072;28;20045;-77
2022/10/27 01:33:31;;;;;;;11.02;2.70;;;16.20;99.90;;;;;;5021047;28;20557;-77
2022/10/27 01:36:02;;;;;;;6.95;2.50;;;16.20;99.90;;;;;;5027426;28;20045;-77
2022/10/27 01:38:31;;;;;;;7.40;2.45;;;16.10;99.90;;;;;;5005831;28;20465;-77
2022/10/27 01:41:02;;;;;;;11.25;2.42;;;16.10;99.90;;;;;;5019983;28;20511;-78
2022/10/27 01:43:31;;;;;;;9.45;2.33;;;16.10;99.90;;;;;;5022997;28;20485;-78
2022/10/27 01:46:02;;;;;;;8.65;2.65;;;16.00;99.90;;;;;;5023094;28;20041;-77
2022/10/27 01:48:29;;;;;;;14.80;3.05;;;16.00;99.90;;;;;;5022874;28;20045;-77
2022/10/27 01:50:56;;;;;;;9.00;2.90;;;16.00;99.90;;;;;;5020121;28;20046;-78
2022/10/27 01:53:23;;;;;;;7.53;2.67;;;15.90;99.90;;;;;;5025193;28;20821;-77
2022/10/27 01:55:58;;;;;;;10.13;2.95;;;15.90;99.90;;;;;;5023586;28;20405;-77
2022/10/27 01:58:45;;;;;;;6.22;2.70;;;15.90;99.90;;;;;;5020170;28;20049;-78
2022/10/27 02:01:25;;;;;;;9.45;2.83;;;15.80;99.90;;;;;;5018563;28;20048;-77
2022/10/27 02:03:59;;;;;;;5.97;2.58;;;15.80;99.90;;;;;;5018851;28;20050;-77
2022/10/27 02:06:31;;;;;;;6.93;2.80;;;15.70;99.90;;;;;;5019600;28;20110;-77
2022/10/27 02:09:03;;;;;;;7.55;2.60;;;15.70;99.90;;;;;;5017876;28;20184;-78
2022/10/27 02:11:29;;;;;;;;;;;15.60;99.90;;;;;;5028993;28;20041;-77
2022/10/27 02:13:58;;;;;;;11.80;3.25;;;15.60;99.90;;;;;;5031275;28;19931;-77
2022/10/27 02:16:29;;;;;;;6.30;2.78;;;15.60;99.90;;;;;;5030162;28;20128;-78
2022/10/27 02:18:59;;;;;;;7.85;3.00;;;15.60;99.90;;;;;;5025417;28;20409;-77
2022/10/27 02:21:26;;;;;;;9.93;2.80;;;15.50;99.90;;;;;;5029978;28;20049;-77
2022/10/27 02:23:53;;;;;;;9.13;3.38;;;15.50;99.90;;;;;;5027491;28;20052;-77
2022/10/27 02:26:24;;;;;;;6.85;3.25;;;15.50;99.90;;;;;;5019406;28;20060;-77
2022/10/27 02:28:55;;;;;;;8.23;3.20;;;15.40;99.90;;;;;;5021832;28;20037;-77
2022/10/27 02:31:26;;;;;;;17.58;2.58;;;15.40;99.90;;;;;;5018684;28;20074;-77
2022/10/27 02:33:53;;;;;;;11.73;2.90;;;15.40;99.90;;;;;;4994720;28;20057;-77
2022/10/27 02:36:20;;;;;;;15.40;3.05;;;15.40;99.90;;;;;;5019387;28;20304;-77
2022/10/27 02:38:47;;;;;;;8.85;2.80;;;15.30;99.90;;;;;;5018252;28;20425;-77
2022/10/27 02:41:14;;;;;;;10.88;2.90;;;15.30;99.90;;;;;;5018604;28;20052;-77
2022/10/27 02:43:41;;;;;;;11.82;2.38;;;15.30;99.90;;;;;;5024924;28;20045;-77
2022/10/27 02:46:08;;;;;;;7.55;2.80;;;15.30;99.90;;;;;;5034708;28;20059;-77
2022/10/27 02:48:36;;;;;;;8.32;3.00;;;15.30;99.90;;;;;;5023853;28;20394;-77
2022/10/27 02:51:03;;;;;;;8.68;2.38;;;15.30;99.90;;;;;;5021012;28;20045;-77
2022/10/27 02:53:30;;;;;;;8.10;2.92;;;15.30;99.90;;;;;;5019275;28;20041;-78
2022/10/27 02:55:57;;;;;;;10.48;2.30;;;15.40;99.90;;;;;;5017258;28;20053;-77
2022/10/27 02:58:24;;;;;;;9.07;2.60;;;15.40;99.90;;;;;;5018901;28;20045;-77
2022/10/27 03:00:54;;;;;;;7.78;2.60;;;15.40;99.90;;;;;;5032280;28;20486;-77
2022/10/27 03:03:21;;;;;;;8.00;2.35;;;15.30;99.90;;;;;;5021118;28;20038;-78
2022/10/27 03:05:49;;;;;;;7.35;3.00;;;15.40;99.90;;;;;;5019665;28;20049;-77
2022/10/27 03:08:16;;;;;;;11.65;2.67;;;15.40;99.90;;;;;;5019538;28;20163;-77
2022/10/27 03:10:43;;;;;;;7.72;2.50;;;15.40;99.90;;;;;;5023352;28;20413;-77
2022/10/27 03:13:10;;;;;;;6.65;2.40;;;15.40;99.90;;;;;;5000353;28;20045;-77
2022/10/27 03:15:38;;;;;;;5.35;2.30;;;15.40;99.90;;;;;;5024262;28;20561;-77
2022/10/27 03:18:05;;;;;;;7.38;2.90;;;15.40;99.90;;;;;;5020685;28;20037;-77
2022/10/27 03:20:32;;;;;;;9.68;2.90;;;15.30;99.90;;;;;;5027058;28;20037;-78
2022/10/27 03:23:00;;;;;;;11.23;3.25;;;15.30;99.90;;;;;;5022671;28;20037;-78
2022/10/27 03:25:27;;;;;;;6.20;2.67;;;15.30;99.90;;;;;;5032935;28;20052;-78
2022/10/27 03:27:54;;;;;;;10.27;2.72;;;15.30;99.90;;;;;;5032501;28;20045;-77
2022/10/27 03:30:21;;;;;;;8.25;2.95;;;15.30;99.90;;;;;;5018124;28;20042;-77
2022/10/27 03:32:49;;;;;;;9.43;2.78;;;15.30;99.90;;;;;;5029012;28;20379;-78
2022/10/27 03:35:17;;;;;;;11.45;3.15;;;15.30;99.90;;;;;;5006575;28;20141;-77
2022/10/27 03:37:44;;;;;;;12.80;2.90;;;15.30;99.90;;;;;;5029381;28;20047;-77
2022/10/27 03:40:13;;;;;;;7.95;2.92;;;15.20;99.90;;;;;;5033978;28;20041;-77
2022/10/27 03:42:41;;;;;;;7.00;2.80;;;15.20;99.90;;;;;;5034361;28;20045;-77
2022/10/27 03:45:08;;;;;;;5.43;2.45;;;15.20;99.90;;;;;;5020454;28;20045;-77
2022/10/27 03:47:35;;;;;;;11.38;3.00;;;15.10;99.90;;;;;;5023160;28;20057;-77
2022/10/27 03:50:02;;;;;;;9.57;3.20;;;15.10;99.90;;;;;;5019677;28;20048;-77
2022/10/27 03:52:29;;;;;;;9.43;3.10;;;15.20;99.90;;;;;;5018039;28;20052;-77
2022/10/27 03:54:56;;;;;;;7.85;3.08;;;15.20;99.90;;;;;;5025214;28;20041;-77
2022/10/27 03:57:24;;;;;;;10.23;3.25;;;15.20;99.90;;;;;;5017680;28;20044;-78
2022/10/27 03:59:51;;;;;;;11.73;3.05;;;15.20;99.90;;;;;;5019920;28;20037;-77
2022/10/27 04:02:18;;;;;;;9.95;3.13;;;15.10;99.90;;;;;;5017643;28;20053;-78
2022/10/27 04:04:45;;;;;;;10.35;3.05;;;15.10;99.90;;;;;;5018126;28;20041;-81
2022/10/27 04:07:12;;;;;;;7.60;2.70;;;15.10;99.90;;;;;;5025326;28;20046;-85
2022/10/27 04:09:39;;;;;;;7.53;2.45;;;15.00;99.90;;;;;;5002884;28;20433;-91
2022/10/27 04:12:06;;;;;;;9.82;3.03;;;14.90;99.90;;;;;;5002427;28;20541;-89
2022/10/27 04:14:34;;;;;;;7.65;2.70;;;15.00;99.90;;;;;;5018121;28;20058;-83
2022/10/27 04:17:01;;;;;;;6.05;2.20;;;14.90;99.90;;;;;;5017111;28;20491;-84
2022/10/27 04:19:28;;;;;;;8.63;2.45;;;14.90;99.90;;;;;;5025853;28;20048;-83
2022/10/27 04:21:55;;;;;;;8.55;3.30;;;14.90;99.90;;;;;;5020026;28;20048;-83
2022/10/27 04:24:22;;;;;;;6.47;2.80;;;14.80;99.90;;;;;;5016483;28;20091;-83
2022/10/27 04:26:49;;;;;;;6.80;2.40;;;14.80;99.90;;;;;;5017027;28;20045;-82
2022/10/27 04:29:16;;;;;;;10.25;3.00;;;14.80;99.90;;;;;;5001176;28;20150;-82
2022/10/27 04:31:44;;;;;;;6.60;2.40;;;14.80;99.90;;;;;;5022680;28;20056;-81
2022/10/27 04:34:11;;;;;;;6.18;2.38;;;14.80;99.90;;;;;;5025517;28;20034;-83
2022/10/27 04:36:38;;;;;;;6.28;2.38;;;14.70;99.90;;;;;;5027321;28;20673;-83
2022/10/27 04:39:05;;;;;;;10.15;2.92;;;14.70;99.90;;;;;;5025208;28;20038;-82
2022/10/27 04:41:32;;;;;;;9.55;2.65;;;14.70;99.90;;;;;;5007036;28;20053;-82
2022/10/27 04:43:59;;;;;;;8.65;2.40;;;14.70;99.90;;;;;;5028160;28;20505;-82
2022/10/27 04:46:26;;;;;;;8.13;2.42;;;14.70;99.90;;;;;;5028055;28;20486;-82
2022/10/27 04:48:54;;;;;;;8.93;2.47;;;14.70;99.90;;;;;;5024223;28;20034;-82
2022/10/27 04:51:21;;;;;;;8.32;2.42;;;14.70;99.90;;;;;;5026389;28;20069;-86
2022/10/27 04:53:48;;;;;;;6.13;2.70;;;14.60;99.90;;;;;;5021019;28;20080;-85
2022/10/27 04:56:16;;;;;;;10.68;2.88;;;14.60;99.90;;;;;;5022752;28;20073;-85
2022/10/27 04:58:43;;;;;;;5.80;2.33;;;14.60;99.90;;;;;;5024005;28;20041;-85
2022/10/27 05:01:11;;;;;;;10.80;2.53;;;14.60;99.90;;;;;;5000413;28;20141;-84
2022/10/27 05:03:38;;;;;;;5.88;2.53;;;14.50;99.90;;;;;;5020449;28;20046;-84
2022/10/27 05:06:07;;;;;;;9.48;2.70;;;14.50;99.90;;;;;;5023575;28;20091;-84
2022/10/27 05:08:34;;;;;;;7.28;2.63;;;14.50;99.90;;;;;;5020622;28;20053;-84
2022/10/27 05:11:01;;;;;;;7.75;2.50;;;14.50;99.90;;;;;;5004204;28;20077;-84
2022/10/27 05:13:28;;;;;;;11.32;2.92;;;14.50;99.90;;;;;;5021835;28;20045;-83
2022/10/27 05:15:59;;;;;;;6.00;2.67;;;14.50;99.90;;;;;;5026821;28;20518;-85
2022/10/27 05:18:26;;;;;;;7.22;2.47;;;14.50;99.90;;;;;;5021038;28;20079;-83
2022/10/27 05:20:53;;;;;;;6.95;2.72;;;14.50;99.90;;;;;;5019959;28;20403;-89
2022/10/27 05:23:22;;;;;;;9.70;2.70;;;14.40;99.90;;;;;;4962286;28;1106752;-87
2022/10/27 05:25:51;;;;;;;8.35;2.90;;;14.40;99.90;;;;;;5020553;28;20049;-88
2022/10/27 05:28:18;;;;;;;5.35;2.28;;;14.40;99.90;;;;;;5009058;28;20652;-87
2022/10/27 05:30:45;;;;;;;7.78;2.47;;;14.40;99.90;;;;;;5015016;28;20033;-87
2022/10/27 05:33:11;;;;;;;6.65;2.42;;;14.40;99.90;;;;;;5011712;28;20049;-86
2022/10/27 05:35:38;;;;;;;6.72;2.53;;;14.40;99.90;;;;;;5029386;28;20126;-88
2022/10/27 05:38:06;;;;;;;8.40;2.55;;;14.30;99.90;;;;;;5029745;28;20417;-87
2022/10/27 05:40:34;;;;;;;14.32;2.75;;;14.40;99.90;;;;;;5027616;28;20034;-87
2022/10/27 05:43:02;;;;;;;12.35;2.63;;;14.30;99.90;;;;;;5027831;28;20132;-86
2022/10/27 05:45:29;;;;;;;10.30;2.55;;;14.20;99.90;;;;;;5011930;28;20045;-89
2022/10/27 05:47:58;;;;;;;7.20;3.03;;;14.20;99.90;;;;;;5045380;28;20049;-88
2022/10/27 06:21:49;;;;;;;7.32;3.15;;;14.10;99.90;;;;;;3778116;22;20049;-95
2022/10/27 06:24:16;;;;;;;8.23;2.90;;;14.10;99.90;;;;;;5015899;28;20048;-90
2022/10/27 06:26:45;;;;;;;8.45;3.15;;;14.10;99.90;;;;;;5015762;28;20444;-91
2022/10/27 06:29:32;;;;;;;;;;;;;;;;;;;;;
2022/10/27 06:32:02;;;;;;;12.45;3.50;;;14.10;99.90;;;;;;5017831;28;20037;-92
2022/10/27 06:34:29;;;;;;;11.45;3.33;;;14.10;99.90;;;;;;5015574;28;20041;-93
2022/10/27 06:36:56;;;;;;;12.00;4.63;;;14.10;99.90;;;;;;5018903;28;20506;-93
2022/10/27 06:39:23;;;;;;;8.05;3.50;;;14.10;99.90;;;;;;5015500;28;20052;-92
2022/10/27 06:41:50;;;;;;;13.60;3.67;;;14.10;99.90;;;;;;5023736;28;20046;-95
2022/10/27 06:44:23;;;;;;;12.18;4.28;;;14.10;99.90;;;;;;5023882;28;20136;-94
2022/10/27 06:46:51;;;;;;;9.60;3.47;;;14.10;99.90;;;;;;5025138;28;20045;-93
2022/10/27 06:49:19;;;;;;;9.25;3.83;;;14.10;99.90;;;;;;5014990;28;20052;-93
2022/10/27 06:51:46;;;;;;;13.82;4.03;;;14.10;99.90;;;;;;5025514;28;20073;-92
2022/10/27 06:54:14;;;;;;;8.32;4.13;;;14.10;99.90;;;;;;5020147;28;20482;-93
2022/10/27 06:56:41;;;;;;;10.77;4.60;;;14.10;99.90;;;;;;5013813;28;20524;-92
2022/10/27 06:59:08;;;;;;;9.25;4.32;;;14.20;99.90;;;;;;5013995;28;20049;-95
2022/10/27 07:01:37;;;;;;;11.40;4.57;;;14.20;99.90;;;;;;5031837;28;20103;-93
2022/10/27 07:04:04;;;;;;;8.38;3.78;;;14.20;99.90;;;;;;5028511;28;20041;-93
2022/10/27 07:06:33;;;;;;;8.73;2.85;;;14.20;99.90;;;;;;5013330;28;20057;-92
2022/10/27 07:09:05;;;;;;;12.13;3.35;;;14.30;99.90;;;;;;5009443;28;20050;-92
2022/10/27 07:11:34;;;;;;;6.13;2.30;;;14.40;99.90;;;;;;5011843;28;20131;-92
2022/10/27 07:14:01;;;;;;;6.20;2.42;;;14.50;99.90;;;;;;5014690;28;20046;-92
2022/10/27 07:16:28;;;;;;;10.13;2.17;;;14.50;99.90;;;;;;5016796;28;20127;-90
2022/10/27 07:18:55;;;;;;;5.15;1.75;;;14.60;99.90;;;;;;5027621;28;20356;-91
2022/10/27 07:21:23;;;;;;;8.18;2.00;;;14.70;99.90;;;;;;5024646;28;20560;-91
2022/10/27 07:23:52;;;;;;;11.85;2.40;;;14.80;99.90;;;;;;5027991;28;20557;-91
2022/10/27 07:26:19;;;;;;;8.50;1.67;;;14.90;99.90;;;;;;5028651;28;20045;-92
2022/10/27 07:28:46;;;;;;;6.60;2.08;;;14.90;99.90;;;;;;5030042;28;20057;-91
2022/10/27 07:31:13;;;;;;;6.35;2.00;;;15.00;99.90;;;;;;5030814;28;20441;-92
2022/10/27 07:33:40;;;;;;;5.72;1.45;;;15.00;99.90;;;;;;5030427;28;20116;-91
2022/10/27 07:36:07;;;;;;;5.70;1.60;;;15.10;99.90;;;;;;5019130;28;20075;-92
2022/10/27 07:38:35;;;;;;;6.85;1.60;;;15.20;99.90;;;;;;5026606;28;20140;-92
2022/10/27 07:41:03;;;;;;;8.57;2.17;;;15.30;99.90;;;;;;5032916;28;20102;-92
2022/10/27 07:43:30;;;;;;;5.00;1.65;;;15.30;99.90;;;;;;5032639;28;20504;-91
2022/10/27 07:45:58;;;;;;;9.60;1.77;;;15.40;99.90;;;;;;5048407;28;20057;-91
2022/10/27 07:48:25;;;;;;;13.35;1.70;;;15.40;99.90;;;;;;5030353;28;20420;-91
2022/10/27 07:50:52;;;;;;;4.97;1.27;;;15.60;99.90;;;;;;5024876;28;20487;-92
2022/10/27 07:53:19;;;;;;;8.88;1.50;;;15.60;99.90;;;;;;5024286;28;20128;-92
2022/10/27 07:55:46;;;;;;;4.93;1.25;;;15.70;99.90;;;;;;5049732;28;20076;-90
2022/10/27 07:58:15;;;;;;;6.63;1.85;;;15.80;99.90;;;;;;5033123;28;20059;-92
2022/10/27 08:00:44;;;;;;;9.68;1.90;;;15.80;99.90;;;;;;5032557;28;20166;-91
2022/10/27 08:03:13;;;;;;;5.63;1.60;;;15.90;99.90;;;;;;5032302;28;20585;-91
2022/10/27 08:05:40;;;;;;;5.30;1.50;;;15.90;99.90;;;;;;5032381;28;20059;-91
2022/10/27 08:08:08;;;;;;;6.07;1.48;;;16.00;99.90;;;;;;5027814;28;20133;-92
2022/10/27 08:10:37;;;;;;;5.82;1.38;;;16.00;99.90;;;;;;5018793;28;20156;-93
2022/10/27 08:13:04;;;;;;;6.15;1.80;;;16.10;99.90;;;;;;5012501;28;20144;-91
2022/10/27 08:15:33;;;;;;;4.10;1.50;;;16.20;99.90;;;;;;5028998;28;20156;-90
2022/10/27 08:18:02;;;;;;;5.60;1.58;;;16.20;99.90;;;;;;5016752;28;20154;-91
2022/10/27 08:20:31;;;;;;;5.35;1.38;;;16.30;99.90;;;;;;5032927;28;20041;-92
2022/10/27 08:22:58;;;;;;;5.85;1.55;;;16.40;99.90;;;;;;5033205;28;20520;-91
2022/10/27 08:25:25;;;;;;;10.88;1.42;;;16.40;99.90;;;;;;5032033;28;20037;-93
2022/10/27 08:27:52;;;;;;;5.78;1.60;;;16.50;99.90;;;;;;5020235;28;20077;-91
2022/10/27 08:30:19;;;;;;;5.82;1.40;;;16.50;99.90;;;;;;5016263;28;20042;-92
2022/10/27 08:32:49;;;;;;;7.40;1.75;;;16.60;99.90;;;;;;5016147;28;20084;-83
2022/10/27 08:35:16;;;;;;;4.07;1.23;;;16.60;99.90;;;;;;5031353;28;20045;-85
2022/10/27 08:37:43;;;;;;;5.45;1.40;;;16.70;99.90;;;;;;5015087;28;20061;-86
2022/10/27 08:40:11;;;;;;;9.00;1.67;;;16.70;99.90;;;;;;5031653;28;20041;-86
2022/10/27 08:42:42;;;;;;;7.53;1.42;;;16.80;99.90;;;;;;5027685;28;20120;-86
2022/10/27 08:45:12;;;;;;;4.97;1.40;;;16.80;99.90;;;;;;5024043;28;20391;-86
2022/10/27 08:47:39;;;;;;;5.97;1.30;;;16.90;99.90;;;;;;5045296;28;20064;-85
2022/10/27 08:50:16;;;;;;;5.30;1.23;;;16.90;99.90;;;;;;5032587;28;20060;-86
2022/10/27 08:52:48;;;;;;;5.18;1.70;;;17.00;99.90;;;;;;5032184;28;20140;-86
2022/10/27 08:55:23;;;;;;;6.22;1.33;;;17.00;99.90;;;;;;5031734;28;20111;-85
2022/10/27 08:57:55;;;;;;;7.53;1.40;;;17.10;99.90;;;;;;5029837;28;20042;-86
2022/10/27 09:00:22;;;;;;;5.88;1.55;;;17.10;99.90;;;;;;5015349;28;20051;-85
2022/10/27 09:03:03;;;;;;;5.78;1.58;;;17.20;99.90;;;;;;5032415;28;20526;-85
2022/10/27 09:05:39;;;;;;;4.95;1.13;;;17.10;99.90;;;;;;5031164;28;20454;-85
2022/10/27 09:08:14;;;;;;;3.53;1.13;;;17.20;99.90;;;;;;5031988;28;20084;-85
2022/10/27 09:10:43;;;;;;;6.18;1.20;;;17.20;99.90;;;;;;5032184;28;20045;-86
2022/10/27 09:13:22;;;;;;;11.07;1.83;;;17.20;99.90;;;;;;5030345;28;20049;-85
2022/10/27 09:15:51;;;;;;;6.18;1.23;;;17.20;99.90;;;;;;5035114;28;20220;-85
2022/10/27 09:18:22;;;;;;;6.95;1.38;;;17.30;99.90;;;;;;5051653;28;20123;-85
2022/10/27 09:20:51;;;;;;;;;;;17.40;99.90;;;;;;4994695;28;20052;-86
2022/10/27 09:23:20;;;;;;;4.00;1.02;;;17.40;99.90;;;;;;4994548;28;19956;-86
2022/10/27 09:25:50;;;;;;;4.22;1.45;;;17.40;99.90;;;;;;5022268;28;20053;-86
2022/10/27 09:28:25;;;;;;;7.30;1.40;;;17.40;99.90;;;;;;5031299;28;20057;-86
2022/10/27 09:30:52;;;;;;;4.22;1.20;;;17.50;99.90;;;;;;5037928;28;20159;-85
2022/10/27 09:33:21;;;;;;;3.88;1.27;;;17.50;99.90;;;;;;5051352;28;20084;-86
2022/10/27 09:35:51;;;;;;;4.68;1.30;;;17.60;99.90;;;;;;5031444;28;20041;-86
2022/10/27 09:38:22;;;;;;;4.63;1.38;;;17.60;99.90;;;;;;5031355;28;20065;-85
2022/10/27 09:40:50;;;;;;;6.05;1.25;;;17.60;99.90;;;;;;5031875;28;20055;-85
2022/10/27 09:43:18;;;;;;;4.47;1.10;;;17.70;99.90;;;;;;5031472;28;20067;-86
2022/10/27 09:45:48;;;;;;;5.63;1.30;;;17.70;99.90;;;;;;5035542;28;20112;-86
2022/10/27 09:48:23;;;;;;;8.10;1.40;;;17.70;99.90;;;;;;5025110;28;20658;-86
2022/10/27 09:50:53;;;;;;;7.78;1.33;;;17.70;99.90;;;;;;5036085;28;20413;-86
2022/10/27 09:53:38;;;;;;;5.43;1.52;;;17.80;99.90;;;;;;5031666;28;20488;-85
2022/10/27 09:56:06;;;;;;;9.93;1.73;;;17.80;99.90;;;;;;5030062;28;20033;-86
2022/10/27 09:58:56;;;;;;;6.85;1.40;;;17.80;99.90;;;;;;5031630;28;20119;-85
2022/10/27 10:01:23;;;;;;;5.35;1.30;;;17.90;99.90;;;;;;5031335;28;20139;-85
2022/10/27 10:03:55;;;;;;;5.55;1.10;;;17.80;99.90;;;;;;5029448;28;20038;-84
2022/10/27 10:06:34;;;;;;;4.80;1.10;;;17.90;99.90;;;;;;5041811;28;20127;-85
2022/10/27 10:09:27;;;;;;;5.00;1.30;;;17.90;99.90;;;;;;5019539;28;20038;-85
2022/10/27 10:12:20;;;;;;;6.97;1.20;;;17.90;99.90;;;;;;5042667;28;20047;-85
2022/10/27 10:14:47;;;;;;;4.75;1.30;;;17.90;99.90;;;;;;5038881;28;20065;-85
2022/10/27 10:17:25;;;;;;;5.75;1.50;;;18.00;99.90;;;;;;5050932;28;20052;-85
2022/10/27 10:19:54;;;;;;;7.00;1.27;;;18.00;99.90;;;;;;5038051;28;20059;-85
2022/10/27 10:22:25;;;;;;;7.07;1.35;;;18.10;99.90;;;;;;5013077;28;20144;-85
2022/10/27 10:24:52;;;;;;;6.82;1.40;;;18.10;99.90;;;;;;5029728;28;20115;-82
2022/10/27 10:27:27;;;;;;;7.28;1.50;;;18.10;99.90;;;;;;5031731;28;20044;-87
2022/10/27 10:29:54;;;;;;;4.78;1.30;;;18.10;99.90;;;;;;5035444;28;20639;-84
2022/10/27 10:32:24;;;;;;;5.32;1.30;;;18.10;99.90;;;;;;5012584;28;20135;-86
2022/10/27 10:34:52;;;;;;;7.53;1.92;;;18.10;99.90;;;;;;5029114;28;20128;-86
2022/10/27 10:37:36;;;;;;;10.07;1.40;;;18.20;99.90;;;;;;5030102;28;20045;-85
2022/10/27 10:40:26;;;;;;;4.50;1.40;;;18.20;99.90;;;;;;5029648;28;20065;-86
2022/10/27 10:43:14;;;;;;;4.68;1.60;;;18.20;99.90;;;;;;5030368;28;20132;-84
2022/10/27 10:45:41;;;;;;;7.78;2.28;;;18.20;99.90;;;;;;5027744;28;20130;-82
2022/10/27 10:48:37;;;;;;;7.93;1.67;;;18.30;99.90;;;;;;5031704;28;20041;-83
2022/10/27 10:51:05;;;;;;;6.35;1.90;;;18.30;99.90;;;;;;5029976;28;20061;-82
2022/10/27 10:53:35;;;;;;;10.68;1.80;;;18.30;99.90;;;;;;5030280;28;20052;-82
2022/10/27 10:56:06;;;;;;;5.15;1.60;;;18.40;99.90;;;;;;5025854;28;20056;-82
2022/10/27 10:58:35;;;;;;;5.38;1.80;;;18.40;99.90;;;;;;5023115;28;20056;-80
2022/10/27 11:01:04;;;;;;;4.18;1.50;;;18.50;99.90;;;;;;5031110;28;20485;-82
2022/10/27 11:03:33;;;;;;;6.47;1.50;;;18.40;99.90;;;;;;5029383;28;20549;-80
2022/10/27 11:06:03;;;;;;;7.60;1.65;;;18.40;99.90;;;;;;5027740;28;20037;-82
2022/10/27 11:08:37;;;;;;;8.43;2.00;;;18.50;99.90;;;;;;5022477;28;20120;-82
2022/10/27 11:11:06;;;;;;;7.53;2.00;;;18.60;99.90;;;;;;5024962;28;20558;-83
2022/10/27 11:13:39;;;;;;;4.97;1.65;;;18.60;99.90;;;;;;5017502;28;20041;-83
2022/10/27 11:16:07;;;;;;;5.78;1.98;;;18.60;99.90;;;;;;5024906;28;20054;-82
2022/10/27 11:18:50;;;;;;;6.78;1.80;;;18.70;99.90;;;;;;5013569;28;20069;-83
2022/10/27 11:21:24;;;;;;;9.38;2.20;;;18.70;99.90;;;;;;5024415;28;20486;-82
2022/10/27 11:23:54;;;;;;;8.63;1.80;;;18.70;99.90;;;;;;5028864;28;20037;-82
2022/10/27 11:26:25;;;;;;;11.93;2.50;;;18.70;99.90;;;;;;5028718;28;20053;-82
2022/10/27 11:28:56;;;;;;;10.02;1.80;;;18.70;99.90;;;;;;5029869;28;20041;-82
2022/10/27 11:31:28;;;;;;;4.93;1.50;;;18.70;99.90;;;;;;5028006;28;20594;-82
2022/10/27 11:34:00;;;;;;;9.32;1.80;;;18.70;99.90;;;;;;5030134;28;20038;-82
2022/10/27 11:36:30;;;;;;;8.57;2.05;;;18.80;99.90;;;;;;5028098;28;20124;-82
2022/10/27 11:39:04;;;;;;;6.50;1.77;;;18.80;99.90;;;;;;5019294;28;20045;-82
2022/10/27 11:41:36;;;;;;;8.95;1.90;;;18.80;99.90;;;;;;5034313;28;20044;-82
2022/10/27 11:44:07;;;;;;;6.03;1.42;;;18.90;99.90;;;;;;5035611;28;20049;-82
2022/10/27 11:46:40;;;;;;;9.82;1.98;;;18.90;99.90;;;;;;5029522;28;20050;-82
2022/10/27 11:49:11;;;;;;;5.22;1.83;;;18.90;99.90;;;;;;5030311;28;20490;-82
2022/10/27 11:51:43;;;;;;;7.40;1.60;;;18.90;99.90;;;;;;5029318;28;20041;-82
2022/10/27 11:54:12;;;;;;;6.03;2.10;;;18.90;99.90;;;;;;5028805;28;20045;-82
2022/10/27 11:56:48;;;;;;;5.90;1.63;;;18.90;99.90;;;;;;5026980;28;20041;-82
2022/10/27 11:59:21;;;;;;;3.83;1.65;;;18.90;99.90;;;;;;5026724;28;20057;-83
2022/10/27 12:02:03;;;;;;;8.60;2.28;;;19.00;99.90;;;;;;5029064;28;20042;-82
2022/10/27 12:04:40;;;;;;;5.30;1.52;;;19.00;99.90;;;;;;5006920;28;20052;-82
2022/10/27 12:07:13;;;;;;;5.05;1.80;;;19.00;99.90;;;;;;5010806;28;20056;-82
2022/10/27 12:09:55;;;;;;;7.07;1.90;;;19.00;99.90;;;;;;5028256;28;20100;-82
2022/10/27 12:12:27;;;;;;;9.05;2.42;;;19.00;99.90;;;;;;5018105;28;20428;-82
2022/10/27 12:15:02;;;;;;;6.30;1.70;;;19.10;99.90;;;;;;5024217;28;20078;-82
2022/10/27 12:17:35;;;;;;;6.28;1.40;;;19.10;99.90;;;;;;5023389;28;20079;-82
2022/10/27 12:20:04;;;;;;;6.85;1.80;;;19.10;99.90;;;;;;5028885;28;20141;-82
2022/10/27 12:22:34;;;;;;;6.22;1.92;;;19.10;99.90;;;;;;5036483;28;20044;-82
2022/10/27 12:25:09;;;;;;;5.93;1.42;;;19.10;99.90;;;;;;5029229;28;20534;-82
2022/10/27 12:27:38;;;;;;;6.95;1.80;;;19.10;99.90;;;;;;5027355;28;20052;-82
2022/10/27 12:30:10;;;;;;;7.15;1.67;;;19.10;99.90;;;;;;5031976;28;20049;-82
2022/10/27 12:32:39;;;;;;;6.07;1.55;;;19.20;99.90;;;;;;5030011;28;20036;-83
2022/10/27 12:35:12;;;;;;;7.68;2.00;;;19.10;99.90;;;;;;5025112;28;20584;-83
2022/10/27 12:37:43;;;;;;;6.03;2.08;;;19.20;99.90;;;;;;5029018;28;20134;-83
2022/10/27 12:40:16;;;;;;;7.43;1.85;;;19.20;99.90;;;;;;5031402;28;20055;-81
2022/10/27 12:42:50;;;;;;;6.25;1.50;;;19.20;99.90;;;;;;5039521;28;20064;-81
2022/10/27 12:45:30;;;;;;;7.88;2.33;;;19.20;99.90;;;;;;5036029;28;20151;-81
2022/10/27 12:48:03;;;;;;;7.35;2.25;;;19.20;99.90;;;;;;5028580;28;20577;-81
2022/10/27 12:50:35;;;;;;;4.55;1.60;;;19.20;99.90;;;;;;5012192;28;20127;-81
2022/10/27 12:53:09;;;;;;;4.60;1.70;;;19.20;99.90;;;;;;5031570;28;20565;-82
2022/10/27 12:55:45;;;;;;;6.68;1.90;;;19.30;99.90;;;;;;5028610;28;20421;-81
2022/10/27 12:58:18;;;;;;;8.73;1.77;;;19.30;99.90;;;;;;5026137;28;20051;-81
2022/10/27 13:00:49;;;;;;;6.53;1.70;;;19.30;99.90;;;;;;5006160;28;20068;-81
2022/10/27 13:03:39;;;;;;;6.78;1.65;;;19.30;99.90;;;;;;5043895;28;20067;-81
2022/10/27 13:06:19;;;;;;;7.28;1.60;;;19.30;99.90;;;;;;5036682;28;20131;-82
2022/10/27 13:09:06;;;;;;;7.63;1.75;;;19.20;99.90;;;;;;5028819;28;20520;-81
2022/10/27 13:11:58;;;;;;;6.82;1.98;;;19.30;99.90;;;;;;5025820;28;20037;-81
2022/10/27 13:14:49;;;;;;;12.15;2.22;;;19.20;99.90;;;;;;4989708;28;20251;-81
2022/10/27 13:17:26;;;;;;;7.82;1.70;;;19.20;99.90;;;;;;5031067;28;20044;-81
2022/10/27 13:19:56;;;;;;;6.75;1.98;;;19.30;99.90;;;;;;5030182;28;20052;-81
2022/10/27 13:22:28;;;;;;;6.32;1.95;;;19.20;99.90;;;;;;5035523;28;20037;-81
2022/10/27 13:25:01;;;;;;;7.60;2.20;;;19.30;99.90;;;;;;5043471;28;20458;-81
2022/10/27 13:27:34;;;;;;;7.53;2.10;;;19.30;99.90;;;;;;5028015;28;20052;-81
2022/10/27 13:30:07;;;;;;;8.45;2.38;;;19.30;99.90;;;;;;5030153;28;20071;-82
2022/10/27 13:32:50;;;;;;;7.13;2.20;;;19.30;99.90;;;;;;5030046;28;20029;-81